Startpagina
METAR-TAF:

METAR-TAF

Vliegvelden :

Iranshahr, Iran

breedte: 27-12N, lengte: 060-42E, hoogte: 591 m

Actueel weer

Dit bericht is 38 minuten geleden gemaakt, om 13:00 UTC
Wind 14 kt uit het zuiden
Temperatuur 43°C
Vochtigheid 24%
Druk 995 hPa
Zicht: 2000 m
Verspreide wolken op 4500 ft, Stapelwolken.
Verspreide wolken op 20000 ft
zand

METAR: OIZI 171300Z 18014KT 2000 SA SCT045TCU SCT200 43/18 Q0995

Tijdstip: 18:08 (13:38 UTC)


TAF: ontbreekt

Waarnemingen en weersverwachtingen van meer dan 4000 vliegvelden (METAR en TAF).

De beschikbare stations zijn de gele en rode punten op de kaart.

Ga met uw muis naar het station om de naam te zien.

Klik dan om waarnemingen en weersverwachtingen te zien.

kaart wijzigen: klik op de groene knoppen met een zwart kruis om in te zoomen, op de groene knop met een streepje om uit te zoomen of op de groene pijlen voor aangrenzende kaarten.


METAR-TAF: